首页
METAR-TAF:

METAR-TAF

机场 :

Phoenix Deer Valley Airport

鳳凰城, 亞利桑那州, 美国

纬度: 33-41-25N, 经度: 112-03-56W, 海拔: 450米

METAR: 丢失

时间: 19:18 (02:18 UTC)

预报

该预报发布于2小时和58分钟前的23:20 UTC
预报有效从22日的 00点(UTC)到 22日的 24点(UTC)
风速10节,风向西转西南,有时为19节阵风
能見度: 10公里
少量云层高于15000英尺
散云层高于25000英尺
从 22日的 0600点(UTC)
风速5节,风向多变
能見度: 10公里
散云层高于15000英尺
多云层高于25000英尺
从 22日的 1700点(UTC)
风速7节,风向西转西南
能見度: 10公里
多云层高于15000英尺
多云层高于20000英尺

TAF: KDVT 212320Z 2200/2224 25010G19KT P6SM FEW150 SCT250 FM220600 VRB05KT P6SM SCT150 BKN250 FM221700 24007KT P6SM BKN150 BKN200 AMD NOT SKED

超过4000个机场的气象观测和天气预报(METAR&TAF报告)。

可查询的气象台以黄色和红色小点在地图上表示。

将鼠标移到小点上方,可查看气象台名称。

然后点击查看天气观测和预报。

如需切换地图:点击带黑十字的绿色按钮放大地图;点击带横线的绿色按钮缩小地图;或者点击绿色箭头查看邻近地区的地图。


METAR-TAF: